createdAt,value
2022-10-17T00:01:35.301Z,1.88
2022-10-17T00:04:02.155Z,1.75
2022-10-17T00:06:28.980Z,1.90
2022-10-17T00:08:55.813Z,1.75
2022-10-17T00:11:24.170Z,1.70
2022-10-17T00:13:55.107Z,1.63
2022-10-17T00:16:34.410Z,1.63
2022-10-17T00:19:02.851Z,2.85
2022-10-17T00:21:29.632Z,1.45
2022-10-17T00:23:56.594Z,1.65
2022-10-17T00:26:23.639Z,1.95
2022-10-17T00:28:52.355Z,1.90
2022-10-17T00:31:20.771Z,1.30
2022-10-17T00:33:48.255Z,1.63
2022-10-17T00:36:18.914Z,2.13
2022-10-17T00:38:47.614Z,2.10
2022-10-17T00:41:16.932Z,3.20
2022-10-17T00:44:05.443Z,2.60
2022-10-17T00:46:34.891Z,2.00
2022-10-17T00:49:20.592Z,1.77
2022-10-17T00:51:51.168Z,1.42
2022-10-17T00:54:23.310Z,1.80
2022-10-17T00:56:51.489Z,1.73
2022-10-17T00:59:20.344Z,2.25
2022-10-17T01:02:08.930Z,1.92
2022-10-17T01:04:41.423Z,2.13
2022-10-17T01:07:09.654Z,2.80
2022-10-17T01:09:37.172Z,3.22
2022-10-17T01:12:27.975Z,2.00
2022-10-17T01:15:13.497Z,2.30
2022-10-17T01:17:40.115Z,2.25
2022-10-17T01:20:06.942Z,1.73
2022-10-17T01:22:50.646Z,3.30
2022-10-17T01:25:33.812Z,2.33
2022-10-17T01:28:15.409Z,2.00
2022-10-17T01:31:09.293Z,1.77
2022-10-17T01:33:54.678Z,2.20
2022-10-17T01:36:39.411Z,2.22
2022-10-17T01:39:39.077Z,1.90
2022-10-17T01:42:35.551Z,2.40
2022-10-17T01:47:35.443Z,1.95
2022-10-17T01:50:14.759Z,2.03
2022-10-17T01:53:05.251Z,1.77
2022-10-17T01:55:36.511Z,2.53
2022-10-17T01:58:12.447Z,2.40
2022-10-17T02:00:42.721Z,1.58
2022-10-17T02:03:14.363Z,2.08
2022-10-17T02:05:43.679Z,2.28
2022-10-17T02:08:11.502Z,2.10
2022-10-17T02:10:44.108Z,1.55
2022-10-17T02:13:32.864Z,2.00
2022-10-17T02:16:08.665Z,1.85
2022-10-17T02:18:55.281Z,3.20
2022-10-17T02:21:54.247Z,2.20
2022-10-17T02:24:48.506Z,2.13
2022-10-17T02:27:36.940Z,2.00
2022-10-17T02:30:15.868Z,2.42
2022-10-17T02:33:15.753Z,1.60
2022-10-17T02:35:50.914Z,1.85
2022-10-17T02:40:47.092Z,2.30
2022-10-17T02:43:14.681Z,1.75
2022-10-17T02:45:42.129Z,1.30
2022-10-17T02:48:19.174Z,1.95
2022-10-17T02:51:20.614Z,2.13
2022-10-17T02:53:55.717Z,1.30
2022-10-17T02:58:54.908Z,2.40
2022-10-17T03:01:22.049Z,1.75
2022-10-17T03:03:48.970Z,2.30
2022-10-17T03:06:16.538Z,1.73
2022-10-17T03:08:43.466Z,2.72
2022-10-17T03:11:10.385Z,1.15
2022-10-17T03:13:39.747Z,1.98
2022-10-17T03:16:06.893Z,1.77
2022-10-17T03:18:33.729Z,2.63
2022-10-17T03:21:00.542Z,1.52
2022-10-17T03:23:27.327Z,2.05
2022-10-17T03:25:54.123Z,1.60
2022-10-17T03:28:20.990Z,1.73
2022-10-17T03:30:48.086Z,1.92
2022-10-17T03:33:14.890Z,1.73
2022-10-17T03:35:41.769Z,2.00
2022-10-17T03:38:08.672Z,1.83
2022-10-17T03:40:35.328Z,1.90
2022-10-17T03:43:01.963Z,1.92
2022-10-17T03:45:28.608Z,1.90
2022-10-17T03:47:55.478Z,1.80
2022-10-17T03:50:22.371Z,2.13
2022-10-17T03:52:49.734Z,1.75
2022-10-17T03:55:17.310Z,1.92
2022-10-17T03:57:45.572Z,2.70
2022-10-17T04:00:13.336Z,1.98
2022-10-17T04:02:40.170Z,2.00
2022-10-17T04:05:07.708Z,3.30
2022-10-17T04:07:34.638Z,1.85
2022-10-17T04:10:01.472Z,2.40
2022-10-17T04:12:28.653Z,2.42
2022-10-17T04:14:55.695Z,2.85
2022-10-17T04:17:22.575Z,2.28
2022-10-17T04:19:49.758Z,2.10
2022-10-17T04:22:16.454Z,3.28
2022-10-17T04:24:43.307Z,2.55
2022-10-17T04:27:10.355Z,2.33
2022-10-17T04:29:37.052Z,2.63
2022-10-17T04:32:04.270Z,3.33
2022-10-17T04:34:31.252Z,2.20
2022-10-17T04:36:58.185Z,2.33
2022-10-17T04:39:25.078Z,2.47
2022-10-17T04:41:51.927Z,3.15
2022-10-17T04:44:18.703Z,1.83
2022-10-17T04:46:45.515Z,1.90
2022-10-17T04:49:12.353Z,1.92
2022-10-17T04:51:39.419Z,1.92
2022-10-17T04:54:06.619Z,1.65
2022-10-17T04:56:33.457Z,1.77
2022-10-17T04:59:00.284Z,2.20
2022-10-17T05:01:27.391Z,1.95
2022-10-17T05:03:54.454Z,1.92
2022-10-17T05:06:24.051Z,3.63
2022-10-17T05:08:51.552Z,3.35
2022-10-17T05:11:23.255Z,1.88
2022-10-17T05:13:54.874Z,1.90
2022-10-17T05:16:22.082Z,2.15
2022-10-17T05:18:52.957Z,2.75
2022-10-17T05:21:21.218Z,2.63
2022-10-17T05:23:48.158Z,2.65
2022-10-17T05:26:15.120Z,3.45
2022-10-17T05:28:42.191Z,1.83
2022-10-17T05:31:10.839Z,2.03
2022-10-17T05:33:38.601Z,2.30
2022-10-17T05:36:06.732Z,2.92
2022-10-17T05:38:33.664Z,2.42
2022-10-17T05:41:02.208Z,2.20
2022-10-17T05:43:29.877Z,2.03
2022-10-17T05:45:56.867Z,2.53
2022-10-17T05:48:24.508Z,2.67
2022-10-17T05:51:02.089Z,2.60
2022-10-17T05:53:33.366Z,3.17
2022-10-17T05:56:02.256Z,2.13
2022-10-17T05:58:49.295Z,1.92
2022-10-17T06:01:16.502Z,4.30
2022-10-17T06:03:43.441Z,2.45
2022-10-17T06:06:12.776Z,2.00
2022-10-17T06:08:39.854Z,3.50
2022-10-17T06:11:09.937Z,2.65
2022-10-17T06:13:38.383Z,2.45
2022-10-17T06:16:06.547Z,2.45
2022-10-17T06:18:36.002Z,2.17
2022-10-17T06:21:08.769Z,2.50
2022-10-17T06:23:35.939Z,2.13
2022-10-17T06:26:05.187Z,2.50
2022-10-17T06:28:32.349Z,2.58
2022-10-17T06:30:59.310Z,1.95
2022-10-17T06:33:26.200Z,1.67
2022-10-17T06:35:54.194Z,1.98
2022-10-17T06:38:21.876Z,2.00
2022-10-17T06:40:49.091Z,2.20
2022-10-17T06:43:18.415Z,2.47
2022-10-17T06:45:47.747Z,3.67
2022-10-17T06:48:15.071Z,2.60
2022-10-17T06:50:41.972Z,2.10
2022-10-17T06:53:08.711Z,2.72
2022-10-17T06:55:35.284Z,1.65
2022-10-17T06:58:02.188Z,1.88
2022-10-17T07:00:28.956Z,2.08
2022-10-17T07:02:55.792Z,2.17
2022-10-17T07:05:22.618Z,2.38
2022-10-17T07:07:51.701Z,2.65
2022-10-17T07:10:19.072Z,2.22
2022-10-17T07:12:46.145Z,2.35
2022-10-17T07:15:13.294Z,2.53
2022-10-17T07:17:40.198Z,2.28
2022-10-17T07:20:07.625Z,2.42
2022-10-17T07:22:34.714Z,2.60
2022-10-17T07:25:01.655Z,2.17
2022-10-17T07:27:28.679Z,2.38
2022-10-17T07:29:55.702Z,2.22
2022-10-17T07:32:22.567Z,4.00
2022-10-17T07:34:49.270Z,1.83
2022-10-17T07:37:16.011Z,2.00
2022-10-17T07:39:42.829Z,2.25
2022-10-17T07:42:10.446Z,2.17
2022-10-17T07:44:37.387Z,2.42
2022-10-17T07:47:04.498Z,1.77
2022-10-17T07:49:31.579Z,2.00
2022-10-17T07:51:58.406Z,2.10
2022-10-17T07:54:25.393Z,2.03
2022-10-17T07:56:52.256Z,2.72
2022-10-17T07:59:19.574Z,2.50
2022-10-17T08:01:46.503Z,2.10
2022-10-17T08:04:13.416Z,2.15
2022-10-17T08:06:40.123Z,1.40
2022-10-17T08:09:06.940Z,2.13
2022-10-17T08:11:33.765Z,1.95
2022-10-17T08:14:00.690Z,1.63
2022-10-17T08:16:27.770Z,2.20
2022-10-17T08:18:55.061Z,2.15
2022-10-17T08:21:21.862Z,1.63
2022-10-17T08:23:48.419Z,1.90
2022-10-17T08:26:17.474Z,2.10
2022-10-17T08:28:44.450Z,1.75
2022-10-17T08:31:18.265Z,1.88
2022-10-17T08:33:45.842Z,1.70
2022-10-17T08:36:14.891Z,2.10
2022-10-17T08:38:43.915Z,2.33
2022-10-17T08:41:25.315Z,1.73
2022-10-17T08:44:17.259Z,1.70
2022-10-17T08:46:47.376Z,2.42
2022-10-17T08:49:24.171Z,1.80
2022-10-17T08:51:59.078Z,1.77
2022-10-17T08:54:42.199Z,1.65
2022-10-17T08:57:15.519Z,1.80
2022-10-17T08:59:52.313Z,2.33
2022-10-17T09:03:02.801Z,2.20
2022-10-17T09:05:49.815Z,1.58
2022-10-17T09:08:40.232Z,2.15
2022-10-17T09:11:25.719Z,1.50
2022-10-17T09:14:03.446Z,1.70
2022-10-17T09:16:39.143Z,2.35
2022-10-17T09:19:28.687Z,1.75
2022-10-17T09:22:01.041Z,2.00
2022-10-17T09:24:38.831Z,1.40
2022-10-17T09:27:13.596Z,1.95
2022-10-17T09:29:43.713Z,1.30
2022-10-17T09:32:25.264Z,1.90
2022-10-17T09:34:53.911Z,1.45
2022-10-17T09:37:25.657Z,1.42
2022-10-17T09:39:52.722Z,1.80
2022-10-17T09:42:23.313Z,1.70
2022-10-17T09:45:05.756Z,1.73
2022-10-17T09:47:41.587Z,1.95
2022-10-17T09:50:25.590Z,1.33
2022-10-17T09:52:53.846Z,1.48
2022-10-17T09:55:28.320Z,1.80
2022-10-17T09:58:00.763Z,1.40
2022-10-17T10:00:49.076Z,1.48
2022-10-17T10:03:20.740Z,1.50
2022-10-17T10:06:13.077Z,1.50
2022-10-17T10:08:50.652Z,1.63
2022-10-17T10:11:18.787Z,1.58
2022-10-17T10:13:48.328Z,1.92
2022-10-17T10:16:31.521Z,1.90
2022-10-17T10:18:59.082Z,2.17
2022-10-17T10:21:27.700Z,1.65
2022-10-17T10:24:06.926Z,1.85
2022-10-17T10:26:41.594Z,1.83
2022-10-17T10:29:23.822Z,1.48
2022-10-17T10:31:51.501Z,1.90
2022-10-17T10:34:30.444Z,1.73
2022-10-17T10:37:02.420Z,1.65
2022-10-17T10:39:43.312Z,1.80
2022-10-17T10:42:27.135Z,1.88
2022-10-17T10:44:59.800Z,2.42
2022-10-17T10:47:31.520Z,2.20
2022-10-17T10:50:25.640Z,1.92
2022-10-17T10:53:02.600Z,2.28
2022-10-17T10:55:46.924Z,1.85
2022-10-17T10:58:47.939Z,2.22
2022-10-17T11:01:22.644Z,1.73
2022-10-17T11:03:57.910Z,2.08
2022-10-17T11:06:34.785Z,2.03
2022-10-17T11:09:04.130Z,1.88
2022-10-17T11:11:39.331Z,1.52
2022-10-17T11:16:45.921Z,1.95
2022-10-17T11:19:28.478Z,2.00
2022-10-17T11:22:11.597Z,2.78
2022-10-17T11:24:42.595Z,1.83
2022-10-17T11:27:09.857Z,2.53
2022-10-17T11:29:40.583Z,2.20
2022-10-17T11:32:13.995Z,2.05
2022-10-17T11:34:45.603Z,2.35
2022-10-17T11:37:35.258Z,2.35
2022-10-17T11:40:31.448Z,2.00
2022-10-17T11:43:07.135Z,3.05
2022-10-17T11:45:39.548Z,1.48
2022-10-17T11:48:21.569Z,1.90
2022-10-17T11:54:03.211Z,2.13
2022-10-17T11:56:43.773Z,2.00
2022-10-17T11:59:41.583Z,1.40
2022-10-17T12:02:39.508Z,1.80
2022-10-17T12:05:33.398Z,1.90
2022-10-17T12:08:10.319Z,2.00
2022-10-17T12:10:45.856Z,2.20
2022-10-17T12:13:47.289Z,2.00
2022-10-17T12:16:34.240Z,1.63
2022-10-17T12:19:01.134Z,2.15
2022-10-17T12:21:31.416Z,3.13
2022-10-17T12:23:59.096Z,2.25
2022-10-17T12:26:28.959Z,2.10
2022-10-17T12:28:57.374Z,2.35
2022-10-17T12:31:33.319Z,2.22
2022-10-17T12:34:03.187Z,2.80
2022-10-17T12:36:30.037Z,2.67
2022-10-17T12:38:56.714Z,2.22
2022-10-17T12:41:38.921Z,2.35
2022-10-17T12:44:15.157Z,2.70
2022-10-17T12:47:06.151Z,2.47
2022-10-17T12:49:45.853Z,2.13
2022-10-17T12:52:15.666Z,1.85
2022-10-17T12:55:12.511Z,2.03
2022-10-17T12:57:59.118Z,2.08
2022-10-17T13:00:37.385Z,2.40
2022-10-17T13:03:42.902Z,2.15
2022-10-17T13:06:19.731Z,2.05
2022-10-17T13:08:54.400Z,2.00
2022-10-17T13:11:25.490Z,2.85
2022-10-17T13:13:56.187Z,3.80
2022-10-17T13:16:35.454Z,2.20
2022-10-17T13:19:24.844Z,2.78
2022-10-17T13:21:59.938Z,2.17
2022-10-17T13:24:39.259Z,2.45
2022-10-17T13:27:21.748Z,2.25
2022-10-17T13:29:48.693Z,3.67
2022-10-17T13:32:15.883Z,3.45
2022-10-17T13:34:43.060Z,1.90
2022-10-17T13:37:14.755Z,2.10
2022-10-17T13:39:54.850Z,4.03
2022-10-17T13:42:29.706Z,2.35
2022-10-17T13:44:59.298Z,2.75
2022-10-17T13:47:29.309Z,2.80
2022-10-17T13:49:58.679Z,2.08
2022-10-17T13:52:28.602Z,2.88
2022-10-17T13:55:06.469Z,2.60
2022-10-17T13:57:33.929Z,2.20
2022-10-17T14:00:03.116Z,2.85
2022-10-17T14:02:32.727Z,2.00
2022-10-17T14:05:18.215Z,2.40
2022-10-17T14:08:17.798Z,2.47
2022-10-17T14:10:44.798Z,2.35
2022-10-17T14:13:20.779Z,2.50
2022-10-17T14:15:47.836Z,2.38
2022-10-17T14:18:19.870Z,2.28
2022-10-17T14:21:31.743Z,2.58
2022-10-17T14:23:41.110Z,3.00
2022-10-17T14:26:21.456Z,2.65
2022-10-17T14:29:06.925Z,2.75
2022-10-17T14:31:36.438Z,3.05
2022-10-17T14:34:05.628Z,3.10
2022-10-17T14:36:38.971Z,2.50
2022-10-17T14:39:13.391Z,2.83
2022-10-17T14:41:44.754Z,3.65
2022-10-17T14:44:26.131Z,2.33
2022-10-17T14:46:58.031Z,3.65
2022-10-17T14:49:35.022Z,3.42
2022-10-17T14:52:26.693Z,2.97
2022-10-17T14:54:53.907Z,2.80
2022-10-17T14:57:42.864Z,3.53
2022-10-17T15:00:15.270Z,2.20
2022-10-17T15:02:42.166Z,2.53
2022-10-17T15:05:13.022Z,2.28
2022-10-17T15:07:41.280Z,2.55
2022-10-17T15:10:27.266Z,3.45
2022-10-17T15:12:59.109Z,2.97
2022-10-17T15:15:32.148Z,2.67
2022-10-17T15:17:59.513Z,2.75
2022-10-17T15:20:28.287Z,2.72
2022-10-17T15:22:55.992Z,2.90
2022-10-17T15:25:24.118Z,3.60
2022-10-17T15:27:51.498Z,3.83
2022-10-17T15:30:29.759Z,3.00
2022-10-17T15:32:56.701Z,4.80
2022-10-17T15:35:23.842Z,3.05
2022-10-17T15:37:51.236Z,3.38
2022-10-17T15:40:22.219Z,3.38
2022-10-17T15:42:49.222Z,4.35
2022-10-17T15:45:18.691Z,2.80
2022-10-17T15:47:52.635Z,3.25
2022-10-17T15:50:20.414Z,3.23
2022-10-17T15:52:47.470Z,3.33
2022-10-17T15:55:14.453Z,3.65
2022-10-17T15:57:43.843Z,3.55
2022-10-17T16:00:18.651Z,3.42
2022-10-17T16:02:46.573Z,3.55
2022-10-17T16:05:25.809Z,4.28
2022-10-17T16:07:54.205Z,3.03
2022-10-17T16:10:22.659Z,3.38
2022-10-17T16:12:50.619Z,3.60
2022-10-17T16:15:23.081Z,2.60
2022-10-17T16:17:51.050Z,3.42
2022-10-17T16:20:17.829Z,3.30
2022-10-17T16:22:45.095Z,3.10
2022-10-17T16:25:32.335Z,2.92
2022-10-17T16:28:00.532Z,3.75
2022-10-17T16:30:30.106Z,3.75
2022-10-17T16:32:57.327Z,3.05
2022-10-17T16:35:33.201Z,3.30
2022-10-17T16:38:03.979Z,3.88
2022-10-17T16:40:30.620Z,2.83
2022-10-17T16:42:57.582Z,2.88
2022-10-17T16:45:24.313Z,2.80
2022-10-17T16:47:51.404Z,3.53
2022-10-17T16:50:18.584Z,3.13
2022-10-17T16:52:45.542Z,3.13
2022-10-17T16:55:12.418Z,4.50
2022-10-17T16:57:39.280Z,3.22
2022-10-17T17:00:07.341Z,3.88
2022-10-17T17:02:34.245Z,3.38
2022-10-17T17:05:01.157Z,2.63
2022-10-17T17:07:29.534Z,3.08
2022-10-17T17:09:56.678Z,2.95
2022-10-17T17:12:23.636Z,2.88
2022-10-17T17:14:51.206Z,2.70
2022-10-17T17:17:30.463Z,3.03
2022-10-17T17:20:06.608Z,2.15
2022-10-17T17:22:33.431Z,3.03
2022-10-17T17:25:00.250Z,2.92
2022-10-17T17:27:30.139Z,4.47
2022-10-17T17:29:56.990Z,2.58
2022-10-17T17:32:25.095Z,3.10
2022-10-17T17:34:51.943Z,2.58
2022-10-17T17:37:18.876Z,2.80
2022-10-17T17:39:45.873Z,3.08
2022-10-17T17:42:12.651Z,3.35
2022-10-17T17:44:39.524Z,3.30
2022-10-17T17:47:06.282Z,2.88
2022-10-17T17:49:33.130Z,4.65
2022-10-17T17:52:00.146Z,2.88
2022-10-17T17:54:26.936Z,3.65
2022-10-17T17:56:53.723Z,6.43
2022-10-17T17:59:20.559Z,3.20
2022-10-17T18:01:47.471Z,3.40
2022-10-17T18:04:16.620Z,3.75
2022-10-17T18:06:43.714Z,2.88
2022-10-17T18:09:11.135Z,3.10
2022-10-17T18:11:38.343Z,3.70
2022-10-17T18:14:07.993Z,3.13
2022-10-17T18:16:36.699Z,4.25
2022-10-17T18:19:09.580Z,3.47
2022-10-17T18:21:37.379Z,3.53
2022-10-17T18:24:05.103Z,4.60
2022-10-17T18:26:32.408Z,3.28
2022-10-17T18:28:59.183Z,4.05
2022-10-17T18:31:32.358Z,3.60
2022-10-17T18:34:02.656Z,4.07
2022-10-17T18:36:30.955Z,3.08
2022-10-17T18:38:58.959Z,3.80
2022-10-17T18:41:28.041Z,4.45
2022-10-17T18:43:55.727Z,5.32
2022-10-17T18:46:29.399Z,5.20
2022-10-17T18:48:56.823Z,5.30
2022-10-17T18:51:25.366Z,3.20
2022-10-17T18:53:58.782Z,3.63
2022-10-17T18:56:26.279Z,3.78
2022-10-17T18:58:53.186Z,4.15
2022-10-17T19:01:22.227Z,3.33
2022-10-17T19:03:51.346Z,4.00
2022-10-17T19:06:20.672Z,4.10
2022-10-17T19:08:47.640Z,3.63
2022-10-17T19:11:20.687Z,4.80
2022-10-17T19:13:50.328Z,4.90
2022-10-17T19:16:22.754Z,3.30
2022-10-17T19:18:51.677Z,5.85
2022-10-17T19:21:21.823Z,4.40
2022-10-17T19:23:51.364Z,4.97
2022-10-17T19:26:19.357Z,4.78
2022-10-17T19:28:47.774Z,3.90
2022-10-17T19:31:17.709Z,3.83
2022-10-17T19:33:45.012Z,4.30
2022-10-17T19:36:12.868Z,5.47
2022-10-17T19:38:40.220Z,3.38
2022-10-17T19:41:09.026Z,4.53
2022-10-17T19:43:37.650Z,4.15
2022-10-17T19:46:06.938Z,3.85
2022-10-17T19:48:36.848Z,4.93
2022-10-17T19:51:08.412Z,4.70
2022-10-17T19:53:35.725Z,3.45
2022-10-17T19:56:03.267Z,4.07
2022-10-17T19:58:30.176Z,4.65
2022-10-17T20:01:01.292Z,5.03
2022-10-17T20:03:28.667Z,4.78
2022-10-17T20:05:55.953Z,3.67
2022-10-17T20:08:23.346Z,5.15
2022-10-17T20:10:50.150Z,3.95
2022-10-17T20:13:16.985Z,4.38
2022-10-17T20:15:54.019Z,4.00
2022-10-17T20:18:20.910Z,3.97
2022-10-17T20:20:48.584Z,3.15
2022-10-17T20:23:15.586Z,2.70
2022-10-17T20:25:43.254Z,2.58
2022-10-17T20:28:10.134Z,2.28
2022-10-17T20:30:37.148Z,2.25
2022-10-17T20:33:04.005Z,2.83
2022-10-17T20:35:30.838Z,2.40
2022-10-17T20:37:57.658Z,2.45
2022-10-17T20:40:39.959Z,2.40
2022-10-17T20:43:08.160Z,2.53
2022-10-17T20:45:51.005Z,2.72
2022-10-17T20:48:18.982Z,2.28
2022-10-17T20:50:45.781Z,2.47
2022-10-17T20:56:05.482Z,3.13
2022-10-17T20:58:32.467Z,2.60
2022-10-17T21:00:59.181Z,2.47
2022-10-17T21:03:27.339Z,1.90
2022-10-17T21:05:54.142Z,3.08
2022-10-17T21:08:21.067Z,2.08
2022-10-17T21:10:48.035Z,2.45
2022-10-17T21:13:14.784Z,1.85
2022-10-17T21:15:41.591Z,2.15
2022-10-17T21:18:08.322Z,2.10
2022-10-17T21:20:35.166Z,2.10
2022-10-17T21:23:01.957Z,2.42
2022-10-17T21:25:28.803Z,2.30
2022-10-17T21:27:55.639Z,3.20
2022-10-17T21:30:24.626Z,2.17
2022-10-17T21:32:55.110Z,2.40
2022-10-17T21:35:22.192Z,3.15
2022-10-17T21:37:49.007Z,2.10
2022-10-17T21:40:16.020Z,2.17
2022-10-17T21:42:42.891Z,1.83
2022-10-17T21:45:15.596Z,1.48
2022-10-17T21:47:55.072Z,1.70
2022-10-17T21:50:30.088Z,1.67
2022-10-17T21:52:58.584Z,1.10
2022-10-17T21:55:25.239Z,1.65
2022-10-17T21:57:52.215Z,1.35
2022-10-17T22:00:19.220Z,1.60
2022-10-17T22:02:46.004Z,1.30
2022-10-17T22:05:12.882Z,1.38
2022-10-17T22:07:39.778Z,1.30
2022-10-17T22:10:06.757Z,1.27
2022-10-17T22:12:33.744Z,1.23
2022-10-17T22:15:00.643Z,1.33
2022-10-17T22:17:27.664Z,1.27
2022-10-17T22:19:54.663Z,1.52
2022-10-17T22:22:21.586Z,1.85
2022-10-17T22:24:48.254Z,1.50
2022-10-17T22:27:15.161Z,1.90
2022-10-17T22:29:42.042Z,1.60
2022-10-17T22:32:08.856Z,1.65
2022-10-17T22:34:35.634Z,1.23
2022-10-17T22:37:02.566Z,1.77
2022-10-17T22:39:29.406Z,1.70
2022-10-17T22:41:56.270Z,1.85
2022-10-17T22:44:22.978Z,1.70
2022-10-17T22:46:49.784Z,1.55
2022-10-17T22:49:16.633Z,1.25
2022-10-17T22:51:43.475Z,1.40
2022-10-17T22:54:10.298Z,1.35
2022-10-17T22:56:36.948Z,1.20
2022-10-17T22:59:03.692Z,1.33
2022-10-17T23:01:30.612Z,1.25
2022-10-17T23:03:57.588Z,1.20
2022-10-17T23:06:24.524Z,1.27
2022-10-17T23:08:52.402Z,1.60
2022-10-17T23:11:21.005Z,1.45
2022-10-17T23:13:48.067Z,2.03
2022-10-17T23:16:14.940Z,1.50
2022-10-17T23:18:41.738Z,1.65
2022-10-17T23:21:08.822Z,1.45
2022-10-17T23:23:36.503Z,1.40
2022-10-17T23:26:08.560Z,1.40
2022-10-17T23:28:35.997Z,1.60
2022-10-17T23:31:14.851Z,1.30
2022-10-17T23:33:42.189Z,1.05
2022-10-17T23:36:10.816Z,1.55
2022-10-17T23:38:38.442Z,1.52
2022-10-17T23:41:07.550Z,0.95
2022-10-17T23:43:34.746Z,1.23
2022-10-17T23:46:02.786Z,1.10
2022-10-17T23:48:30.365Z,1.13
2022-10-17T23:50:57.318Z,0.90
2022-10-17T23:53:24.839Z,0.80
2022-10-17T23:55:51.974Z,1.10
2022-10-17T23:58:18.993Z,0.80
